sensor_id;sensor_type;location;lat;lon;timestamp;P1;durP1;ratioP1;P2;durP2;ratioP2
53271;SDS011;39160;48.580;7.756;2023-02-10T00:04:03;28.38;;;10.77;;
53271;SDS011;39160;48.580;7.756;2023-02-10T00:08:57;26.80;;;10.70;;
53271;SDS011;39160;48.580;7.756;2023-02-10T00:13:50;17.67;;;9.68;;
53271;SDS011;39160;48.580;7.756;2023-02-10T00:18:41;25.85;;;10.13;;
53271;SDS011;39160;48.580;7.756;2023-02-10T00:23:31;17.65;;;9.38;;
53271;SDS011;39160;48.580;7.756;2023-02-10T00:28:22;21.52;;;9.38;;
53271;SDS011;39160;48.580;7.756;2023-02-10T00:33:13;19.10;;;9.60;;
53271;SDS011;39160;48.580;7.756;2023-02-10T00:38:03;20.50;;;9.52;;
53271;SDS011;39160;48.580;7.756;2023-02-10T00:42:54;19.25;;;8.90;;
53271;SDS011;39160;48.580;7.756;2023-02-10T00:47:45;15.02;;;8.60;;
53271;SDS011;39160;48.580;7.756;2023-02-10T00:52:36;22.00;;;9.40;;
53271;SDS011;39160;48.580;7.756;2023-02-10T00:57:29;18.73;;;8.77;;
53271;SDS011;39160;48.580;7.756;2023-02-10T01:02:19;21.00;;;9.68;;
53271;SDS011;39160;48.580;7.756;2023-02-10T01:07:10;17.85;;;9.75;;
53271;SDS011;39160;48.580;7.756;2023-02-10T01:12:01;20.98;;;9.85;;
53271;SDS011;39160;48.580;7.756;2023-02-10T01:16:51;21.98;;;9.02;;
53271;SDS011;39160;48.580;7.756;2023-02-10T01:21:42;20.38;;;11.32;;
53271;SDS011;39160;48.580;7.756;2023-02-10T01:26:33;16.05;;;9.18;;
53271;SDS011;39160;48.580;7.756;2023-02-10T01:31:24;20.75;;;10.32;;
53271;SDS011;39160;48.580;7.756;2023-02-10T01:36:15;21.73;;;10.73;;
53271;SDS011;39160;48.580;7.756;2023-02-10T01:41:07;22.40;;;10.85;;
53271;SDS011;39160;48.580;7.756;2023-02-10T01:45:58;21.85;;;10.57;;
53271;SDS011;39160;48.580;7.756;2023-02-10T01:55:45;16.92;;;8.30;;
53271;SDS011;39160;48.580;7.756;2023-02-10T02:00:39;25.60;;;10.73;;
53271;SDS011;39160;48.580;7.756;2023-02-10T02:10:23;29.83;;;12.15;;
53271;SDS011;39160;48.580;7.756;2023-02-10T02:20:52;27.90;;;10.85;;
53271;SDS011;39160;48.580;7.756;2023-02-10T02:31:33;22.48;;;11.80;;
53271;SDS011;39160;48.580;7.756;2023-02-10T02:36:49;27.73;;;10.57;;
53271;SDS011;39160;48.580;7.756;2023-02-10T02:47:09;23.27;;;10.50;;
53271;SDS011;39160;48.580;7.756;2023-02-10T02:52:12;21.52;;;10.98;;
53271;SDS011;39160;48.580;7.756;2023-02-10T03:02:32;25.40;;;11.18;;
53271;SDS011;39160;48.580;7.756;2023-02-10T03:07:24;33.13;;;12.10;;
53271;SDS011;39160;48.580;7.756;2023-02-10T03:12:15;29.33;;;11.93;;
53271;SDS011;39160;48.580;7.756;2023-02-10T03:17:06;23.08;;;11.02;;
53271;SDS011;39160;48.580;7.756;2023-02-10T03:21:57;28.48;;;11.55;;
53271;SDS011;39160;48.580;7.756;2023-02-10T03:26:47;23.80;;;10.57;;
53271;SDS011;39160;48.580;7.756;2023-02-10T03:31:38;26.30;;;11.43;;
53271;SDS011;39160;48.580;7.756;2023-02-10T03:36:29;26.65;;;12.15;;
53271;SDS011;39160;48.580;7.756;2023-02-10T03:41:20;25.25;;;11.13;;
53271;SDS011;39160;48.580;7.756;2023-02-10T03:46:10;26.33;;;11.80;;
53271;SDS011;39160;48.580;7.756;2023-02-10T03:51:02;20.08;;;11.45;;
53271;SDS011;39160;48.580;7.756;2023-02-10T03:55:54;23.10;;;11.60;;
53271;SDS011;39160;48.580;7.756;2023-02-10T04:00:45;24.25;;;11.65;;
53271;SDS011;39160;48.580;7.756;2023-02-10T04:05:35;23.55;;;9.93;;
53271;SDS011;39160;48.580;7.756;2023-02-10T04:10:26;22.83;;;11.45;;
53271;SDS011;39160;48.580;7.756;2023-02-10T04:15:17;23.27;;;11.07;;
53271;SDS011;39160;48.580;7.756;2023-02-10T04:20:08;20.90;;;10.85;;
53271;SDS011;39160;48.580;7.756;2023-02-10T04:24:59;23.35;;;10.40;;
53271;SDS011;39160;48.580;7.756;2023-02-10T04:29:50;27.95;;;9.23;;
53271;SDS011;39160;48.580;7.756;2023-02-10T04:34:41;22.75;;;11.60;;
53271;SDS011;39160;48.580;7.756;2023-02-10T04:39:31;20.02;;;9.23;;
53271;SDS011;39160;48.580;7.756;2023-02-10T04:44:22;19.65;;;11.60;;
53271;SDS011;39160;48.580;7.756;2023-02-10T04:49:13;21.60;;;9.80;;
53271;SDS011;39160;48.580;7.756;2023-02-10T04:54:04;24.63;;;10.65;;
53271;SDS011;39160;48.580;7.756;2023-02-10T04:58:55;21.98;;;9.95;;
53271;SDS011;39160;48.580;7.756;2023-02-10T05:03:46;25.08;;;9.88;;
53271;SDS011;39160;48.580;7.756;2023-02-10T05:08:36;24.25;;;9.88;;
53271;SDS011;39160;48.580;7.756;2023-02-10T05:13:31;21.35;;;8.93;;
53271;SDS011;39160;48.580;7.756;2023-02-10T05:18:22;22.40;;;10.93;;
53271;SDS011;39160;48.580;7.756;2023-02-10T05:23:12;22.58;;;10.02;;
53271;SDS011;39160;48.580;7.756;2023-02-10T05:28:03;20.00;;;10.10;;
53271;SDS011;39160;48.580;7.756;2023-02-10T05:32:54;24.02;;;9.73;;
53271;SDS011;39160;48.580;7.756;2023-02-10T05:37:45;17.80;;;9.02;;
53271;SDS011;39160;48.580;7.756;2023-02-10T05:42:36;19.88;;;8.90;;
53271;SDS011;39160;48.580;7.756;2023-02-10T05:47:26;20.60;;;8.63;;
53271;SDS011;39160;48.580;7.756;2023-02-10T05:52:17;20.33;;;10.80;;
53271;SDS011;39160;48.580;7.756;2023-02-10T05:57:08;17.10;;;8.63;;
53271;SDS011;39160;48.580;7.756;2023-02-10T06:01:59;24.20;;;10.63;;
53271;SDS011;39160;48.580;7.756;2023-02-10T06:06:49;20.00;;;8.00;;
53271;SDS011;39160;48.580;7.756;2023-02-10T06:11:40;21.70;;;9.88;;
53271;SDS011;39160;48.580;7.756;2023-02-10T06:16:31;23.70;;;8.55;;
53271;SDS011;39160;48.580;7.756;2023-02-10T06:21:22;23.27;;;10.27;;
53271;SDS011;39160;48.580;7.756;2023-02-10T06:26:12;20.75;;;10.80;;
53271;SDS011;39160;48.580;7.756;2023-02-10T06:31:03;23.77;;;9.77;;
53271;SDS011;39160;48.580;7.756;2023-02-10T06:35:54;23.65;;;11.23;;
53271;SDS011;39160;48.580;7.756;2023-02-10T06:40:45;27.67;;;11.02;;
53271;SDS011;39160;48.580;7.756;2023-02-10T06:45:35;18.33;;;10.13;;
53271;SDS011;39160;48.580;7.756;2023-02-10T06:50:26;24.80;;;11.05;;
53271;SDS011;39160;48.580;7.756;2023-02-10T06:55:17;22.63;;;10.95;;
53271;SDS011;39160;48.580;7.756;2023-02-10T07:00:09;20.20;;;10.82;;
53271;SDS011;39160;48.580;7.756;2023-02-10T07:05:02;28.90;;;10.70;;
53271;SDS011;39160;48.580;7.756;2023-02-10T07:09:55;29.20;;;11.63;;
53271;SDS011;39160;48.580;7.756;2023-02-10T07:14:46;23.90;;;11.05;;
53271;SDS011;39160;48.580;7.756;2023-02-10T07:19:37;20.75;;;10.68;;
53271;SDS011;39160;48.580;7.756;2023-02-10T07:24:27;26.10;;;11.30;;
53271;SDS011;39160;48.580;7.756;2023-02-10T07:29:18;24.83;;;10.32;;
53271;SDS011;39160;48.580;7.756;2023-02-10T07:34:08;24.13;;;11.07;;
53271;SDS011;39160;48.580;7.756;2023-02-10T07:38:59;25.40;;;11.23;;
53271;SDS011;39160;48.580;7.756;2023-02-10T07:43:50;28.13;;;10.35;;
53271;SDS011;39160;48.580;7.756;2023-02-10T07:48:40;31.42;;;11.60;;
53271;SDS011;39160;48.580;7.756;2023-02-10T07:53:31;27.10;;;11.07;;
53271;SDS011;39160;48.580;7.756;2023-02-10T07:58:22;22.65;;;10.90;;
53271;SDS011;39160;48.580;7.756;2023-02-10T08:03:13;21.45;;;11.55;;
53271;SDS011;39160;48.580;7.756;2023-02-10T08:08:04;22.67;;;10.07;;
53271;SDS011;39160;48.580;7.756;2023-02-10T08:12:55;24.38;;;11.98;;
53271;SDS011;39160;48.580;7.756;2023-02-10T08:17:46;32.67;;;12.63;;
53271;SDS011;39160;48.580;7.756;2023-02-10T08:22:36;29.15;;;13.07;;
53271;SDS011;39160;48.580;7.756;2023-02-10T08:27:27;25.45;;;12.73;;
53271;SDS011;39160;48.580;7.756;2023-02-10T08:32:20;26.10;;;12.25;;
53271;SDS011;39160;48.580;7.756;2023-02-10T08:37:11;25.65;;;11.13;;
53271;SDS011;39160;48.580;7.756;2023-02-10T08:42:01;25.35;;;11.73;;
53271;SDS011;39160;48.580;7.756;2023-02-10T08:46:52;28.02;;;11.63;;
53271;SDS011;39160;48.580;7.756;2023-02-10T08:51:43;31.05;;;13.35;;
53271;SDS011;39160;48.580;7.756;2023-02-10T08:56:33;25.23;;;10.32;;
53271;SDS011;39160;48.580;7.756;2023-02-10T09:01:24;22.25;;;10.35;;
53271;SDS011;39160;48.580;7.756;2023-02-10T09:06:20;25.40;;;11.60;;
53271;SDS011;39160;48.580;7.756;2023-02-10T09:11:15;25.70;;;11.45;;
53271;SDS011;39160;48.580;7.756;2023-02-10T09:16:06;21.15;;;12.27;;
53271;SDS011;39160;48.580;7.756;2023-02-10T09:20:58;23.20;;;11.82;;
53271;SDS011;39160;48.580;7.756;2023-02-10T09:25:53;29.38;;;14.13;;
53271;SDS011;39160;48.580;7.756;2023-02-10T09:30:49;25.33;;;12.70;;
53271;SDS011;39160;48.580;7.756;2023-02-10T09:35:39;28.70;;;13.77;;
53271;SDS011;39160;48.580;7.756;2023-02-10T09:40:34;24.08;;;13.10;;
53271;SDS011;39160;48.580;7.756;2023-02-10T09:45:35;29.58;;;11.98;;
53271;SDS011;39160;48.580;7.756;2023-02-10T09:55:54;27.50;;;14.13;;
53271;SDS011;39160;48.580;7.756;2023-02-10T10:00:55;22.20;;;11.65;;
53271;SDS011;39160;48.580;7.756;2023-02-10T10:10:53;31.27;;;14.20;;
53271;SDS011;39160;48.580;7.756;2023-02-10T10:15:58;37.83;;;18.67;;
53271;SDS011;39160;48.580;7.756;2023-02-10T10:31:56;34.22;;;15.25;;
53271;SDS011;39160;48.580;7.756;2023-02-10T10:37:05;32.78;;;15.57;;
53271;SDS011;39160;48.580;7.756;2023-02-10T10:42:45;35.40;;;15.07;;
53271;SDS011;39160;48.580;7.756;2023-02-10T10:47:39;32.42;;;16.08;;
53271;SDS011;39160;48.580;7.756;2023-02-10T10:52:35;35.25;;;15.02;;
53271;SDS011;39160;48.580;7.756;2023-02-10T10:57:27;33.05;;;16.88;;
53271;SDS011;39160;48.580;7.756;2023-02-10T11:02:21;27.10;;;14.10;;
53271;SDS011;39160;48.580;7.756;2023-02-10T11:07:18;35.00;;;16.48;;
53271;SDS011;39160;48.580;7.756;2023-02-10T11:17:35;28.77;;;14.77;;
53271;SDS011;39160;48.580;7.756;2023-02-10T11:22:29;36.88;;;16.30;;
53271;SDS011;39160;48.580;7.756;2023-02-10T11:27:20;29.92;;;14.68;;
53271;SDS011;39160;48.580;7.756;2023-02-10T11:32:18;35.20;;;16.55;;
53271;SDS011;39160;48.580;7.756;2023-02-10T11:37:21;33.13;;;16.58;;
53271;SDS011;39160;48.580;7.756;2023-02-10T11:42:20;29.23;;;16.38;;
53271;SDS011;39160;48.580;7.756;2023-02-10T11:47:14;34.75;;;17.17;;
53271;SDS011;39160;48.580;7.756;2023-02-10T11:52:06;29.95;;;16.77;;
53271;SDS011;39160;48.580;7.756;2023-02-10T12:12:51;36.38;;;16.92;;
53271;SDS011;39160;48.580;7.756;2023-02-10T12:39:20;32.78;;;16.65;;
53271;SDS011;39160;48.580;7.756;2023-02-10T12:44:20;31.70;;;16.02;;
53271;SDS011;39160;48.580;7.756;2023-02-10T12:49:39;27.63;;;14.82;;
53271;SDS011;39160;48.580;7.756;2023-02-10T12:59:41;32.45;;;15.13;;
53271;SDS011;39160;48.580;7.756;2023-02-10T13:04:38;27.85;;;15.20;;
53271;SDS011;39160;48.580;7.756;2023-02-10T13:15:28;32.13;;;14.00;;
53271;SDS011;39160;48.580;7.756;2023-02-10T13:20:40;28.20;;;12.93;;
53271;SDS011;39160;48.580;7.756;2023-02-10T13:25:49;26.83;;;14.13;;
53271;SDS011;39160;48.580;7.756;2023-02-10T13:35:51;21.83;;;12.20;;
53271;SDS011;39160;48.580;7.756;2023-02-10T13:40:49;24.30;;;12.82;;
53271;SDS011;39160;48.580;7.756;2023-02-10T13:45:47;23.05;;;12.80;;
53271;SDS011;39160;48.580;7.756;2023-02-10T14:00:30;26.42;;;12.93;;
53271;SDS011;39160;48.580;7.756;2023-02-10T14:05:34;21.85;;;12.55;;
53271;SDS011;39160;48.580;7.756;2023-02-10T14:10:40;25.50;;;11.35;;
53271;SDS011;39160;48.580;7.756;2023-02-10T14:15:32;24.63;;;13.05;;
53271;SDS011;39160;48.580;7.756;2023-02-10T14:20:30;23.83;;;12.18;;
53271;SDS011;39160;48.580;7.756;2023-02-10T14:25:29;26.67;;;11.50;;
53271;SDS011;39160;48.580;7.756;2023-02-10T14:35:22;22.67;;;10.00;;
53271;SDS011;39160;48.580;7.756;2023-02-10T14:40:15;21.77;;;10.85;;
53271;SDS011;39160;48.580;7.756;2023-02-10T14:45:16;21.73;;;11.45;;
53271;SDS011;39160;48.580;7.756;2023-02-10T14:50:26;18.70;;;10.32;;
53271;SDS011;39160;48.580;7.756;2023-02-10T15:00:17;20.33;;;9.75;;
53271;SDS011;39160;48.580;7.756;2023-02-10T15:05:09;21.23;;;10.00;;
53271;SDS011;39160;48.580;7.756;2023-02-10T15:10:19;21.27;;;11.65;;
53271;SDS011;39160;48.580;7.756;2023-02-10T15:20:30;18.23;;;9.88;;
53271;SDS011;39160;48.580;7.756;2023-02-10T15:35:19;17.65;;;9.90;;
53271;SDS011;39160;48.580;7.756;2023-02-10T15:40:21;21.23;;;10.15;;
53271;SDS011;39160;48.580;7.756;2023-02-10T15:45:15;24.77;;;10.63;;
53271;SDS011;39160;48.580;7.756;2023-02-10T15:50:10;18.50;;;9.68;;
53271;SDS011;39160;48.580;7.756;2023-02-10T15:55:03;23.05;;;9.55;;
53271;SDS011;39160;48.580;7.756;2023-02-10T16:00:00;22.15;;;10.55;;
53271;SDS011;39160;48.580;7.756;2023-02-10T16:04:51;25.50;;;10.52;;
53271;SDS011;39160;48.580;7.756;2023-02-10T16:09:42;22.13;;;9.82;;
53271;SDS011;39160;48.580;7.756;2023-02-10T16:14:33;18.45;;;9.27;;
53271;SDS011;39160;48.580;7.756;2023-02-10T16:19:24;18.42;;;8.55;;
53271;SDS011;39160;48.580;7.756;2023-02-10T16:24:18;18.08;;;9.20;;
53271;SDS011;39160;48.580;7.756;2023-02-10T16:29:13;19.48;;;8.45;;
53271;SDS011;39160;48.580;7.756;2023-02-10T16:38:56;14.43;;;7.00;;
53271;SDS011;39160;48.580;7.756;2023-02-10T16:43:47;15.68;;;7.28;;
53271;SDS011;39160;48.580;7.756;2023-02-10T16:48:39;21.60;;;9.13;;
53271;SDS011;39160;48.580;7.756;2023-02-10T16:53:30;19.60;;;10.50;;
53271;SDS011;39160;48.580;7.756;2023-02-10T16:58:20;20.73;;;10.30;;
53271;SDS011;39160;48.580;7.756;2023-02-10T17:03:11;23.63;;;12.00;;
53271;SDS011;39160;48.580;7.756;2023-02-10T17:08:03;26.10;;;12.10;;
53271;SDS011;39160;48.580;7.756;2023-02-10T17:12:54;31.48;;;13.10;;
53271;SDS011;39160;48.580;7.756;2023-02-10T17:17:45;31.08;;;12.35;;
53271;SDS011;39160;48.580;7.756;2023-02-10T17:22:36;28.92;;;13.02;;
53271;SDS011;39160;48.580;7.756;2023-02-10T17:27:29;28.63;;;12.35;;
53271;SDS011;39160;48.580;7.756;2023-02-10T17:32:20;29.50;;;13.23;;
53271;SDS011;39160;48.580;7.756;2023-02-10T17:37:10;29.45;;;14.43;;
53271;SDS011;39160;48.580;7.756;2023-02-10T17:42:01;24.90;;;12.50;;
53271;SDS011;39160;48.580;7.756;2023-02-10T17:46:53;30.95;;;13.90;;
53271;SDS011;39160;48.580;7.756;2023-02-10T17:51:46;33.83;;;14.15;;
53271;SDS011;39160;48.580;7.756;2023-02-10T17:56:37;31.75;;;13.30;;
53271;SDS011;39160;48.580;7.756;2023-02-10T18:01:28;28.20;;;14.32;;
53271;SDS011;39160;48.580;7.756;2023-02-10T18:06:21;29.25;;;13.82;;
53271;SDS011;39160;48.580;7.756;2023-02-10T18:11:12;33.15;;;13.13;;
53271;SDS011;39160;48.580;7.756;2023-02-10T18:16:03;31.92;;;13.23;;
53271;SDS011;39160;48.580;7.756;2023-02-10T18:20:54;31.63;;;13.35;;
53271;SDS011;39160;48.580;7.756;2023-02-10T18:25:46;31.67;;;12.73;;
53271;SDS011;39160;48.580;7.756;2023-02-10T18:30:37;32.58;;;13.88;;
53271;SDS011;39160;48.580;7.756;2023-02-10T18:35:28;33.15;;;15.30;;
53271;SDS011;39160;48.580;7.756;2023-02-10T18:40:23;36.13;;;16.08;;
53271;SDS011;39160;48.580;7.756;2023-02-10T18:45:14;31.60;;;14.10;;
53271;SDS011;39160;48.580;7.756;2023-02-10T18:50:05;35.85;;;15.45;;
53271;SDS011;39160;48.580;7.756;2023-02-10T18:54:56;34.15;;;13.43;;
53271;SDS011;39160;48.580;7.756;2023-02-10T18:59:47;29.23;;;13.80;;
53271;SDS011;39160;48.580;7.756;2023-02-10T19:04:38;27.65;;;14.13;;
53271;SDS011;39160;48.580;7.756;2023-02-10T19:09:29;34.33;;;15.05;;
53271;SDS011;39160;48.580;7.756;2023-02-10T19:14:20;30.60;;;14.07;;
53271;SDS011;39160;48.580;7.756;2023-02-10T19:19:10;32.72;;;14.40;;
53271;SDS011;39160;48.580;7.756;2023-02-10T19:24:01;33.35;;;13.93;;
53271;SDS011;39160;48.580;7.756;2023-02-10T19:28:52;28.17;;;13.35;;
53271;SDS011;39160;48.580;7.756;2023-02-10T19:33:43;29.58;;;13.88;;
53271;SDS011;39160;48.580;7.756;2023-02-10T19:38:38;30.87;;;14.60;;
53271;SDS011;39160;48.580;7.756;2023-02-10T19:43:29;28.48;;;13.15;;
53271;SDS011;39160;48.580;7.756;2023-02-10T19:48:20;31.75;;;15.45;;
53271;SDS011;39160;48.580;7.756;2023-02-10T19:53:11;33.75;;;13.95;;
53271;SDS011;39160;48.580;7.756;2023-02-10T19:58:02;31.55;;;15.07;;
53271;SDS011;39160;48.580;7.756;2023-02-10T20:02:53;33.05;;;15.63;;
53271;SDS011;39160;48.580;7.756;2023-02-10T20:07:44;30.33;;;14.50;;
53271;SDS011;39160;48.580;7.756;2023-02-10T20:12:34;36.53;;;15.02;;
53271;SDS011;39160;48.580;7.756;2023-02-10T20:17:25;29.70;;;14.50;;
53271;SDS011;39160;48.580;7.756;2023-02-10T20:22:16;33.13;;;16.20;;
53271;SDS011;39160;48.580;7.756;2023-02-10T20:27:06;37.10;;;16.67;;
53271;SDS011;39160;48.580;7.756;2023-02-10T20:31:57;37.42;;;17.73;;
53271;SDS011;39160;48.580;7.756;2023-02-10T20:36:48;35.42;;;16.63;;
53271;SDS011;39160;48.580;7.756;2023-02-10T20:41:38;33.90;;;15.73;;
53271;SDS011;39160;48.580;7.756;2023-02-10T20:46:29;31.40;;;15.15;;
53271;SDS011;39160;48.580;7.756;2023-02-10T20:51:22;32.70;;;15.15;;
53271;SDS011;39160;48.580;7.756;2023-02-10T20:56:16;33.60;;;15.32;;
53271;SDS011;39160;48.580;7.756;2023-02-10T21:01:09;31.30;;;13.95;;
53271;SDS011;39160;48.580;7.756;2023-02-10T21:11:01;27.35;;;12.55;;
53271;SDS011;39160;48.580;7.756;2023-02-10T21:15:52;27.95;;;13.48;;
53271;SDS011;39160;48.580;7.756;2023-02-10T21:20:44;32.65;;;13.77;;
53271;SDS011;39160;48.580;7.756;2023-02-10T21:25:35;28.23;;;13.43;;
53271;SDS011;39160;48.580;7.756;2023-02-10T21:30:27;30.30;;;15.23;;
53271;SDS011;39160;48.580;7.756;2023-02-10T21:35:18;35.45;;;14.90;;
53271;SDS011;39160;48.580;7.756;2023-02-10T21:40:09;30.95;;;15.63;;
53271;SDS011;39160;48.580;7.756;2023-02-10T21:45:00;33.83;;;15.93;;
53271;SDS011;39160;48.580;7.756;2023-02-10T21:49:51;34.13;;;15.43;;
53271;SDS011;39160;48.580;7.756;2023-02-10T21:54:41;40.95;;;15.95;;
53271;SDS011;39160;48.580;7.756;2023-02-10T21:59:32;29.17;;;13.85;;
53271;SDS011;39160;48.580;7.756;2023-02-10T22:04:25;25.90;;;14.05;;
53271;SDS011;39160;48.580;7.756;2023-02-10T22:09:16;33.53;;;13.98;;
53271;SDS011;39160;48.580;7.756;2023-02-10T22:14:11;34.35;;;13.20;;
53271;SDS011;39160;48.580;7.756;2023-02-10T22:19:03;31.83;;;13.13;;
53271;SDS011;39160;48.580;7.756;2023-02-10T22:23:53;31.80;;;14.48;;
53271;SDS011;39160;48.580;7.756;2023-02-10T22:28:45;29.63;;;14.10;;
53271;SDS011;39160;48.580;7.756;2023-02-10T22:33:36;28.48;;;12.30;;
53271;SDS011;39160;48.580;7.756;2023-02-10T22:38:27;22.05;;;12.30;;
53271;SDS011;39160;48.580;7.756;2023-02-10T22:43:17;25.90;;;12.63;;
53271;SDS011;39160;48.580;7.756;2023-02-10T22:48:08;22.25;;;11.48;;
53271;SDS011;39160;48.580;7.756;2023-02-10T22:52:59;31.50;;;13.82;;
53271;SDS011;39160;48.580;7.756;2023-02-10T22:57:49;26.77;;;12.02;;
53271;SDS011;39160;48.580;7.756;2023-02-10T23:02:40;27.15;;;13.27;;
53271;SDS011;39160;48.580;7.756;2023-02-10T23:07:33;30.15;;;12.73;;
53271;SDS011;39160;48.580;7.756;2023-02-10T23:12:23;26.67;;;11.68;;
53271;SDS011;39160;48.580;7.756;2023-02-10T23:17:14;25.13;;;12.20;;
53271;SDS011;39160;48.580;7.756;2023-02-10T23:22:05;23.73;;;12.52;;
53271;SDS011;39160;48.580;7.756;2023-02-10T23:26:58;24.13;;;12.35;;
53271;SDS011;39160;48.580;7.756;2023-02-10T23:31:49;21.27;;;11.50;;
53271;SDS011;39160;48.580;7.756;2023-02-10T23:36:40;22.35;;;12.40;;
53271;SDS011;39160;48.580;7.756;2023-02-10T23:41:32;24.25;;;11.35;;
53271;SDS011;39160;48.580;7.756;2023-02-10T23:46:24;27.23;;;12.40;;
53271;SDS011;39160;48.580;7.756;2023-02-10T23:51:16;26.30;;;11.70;;
53271;SDS011;39160;48.580;7.756;2023-02-10T23:56:10;22.13;;;11.32;;
